sensor_id;sensor_type;location;lat;lon;timestamp;P1;durP1;ratioP1;P2;durP2;ratioP2
80119;SDS011;69425;55.040;82.918;2023-09-08T00:02:38;5.13;;;2.65;;
80119;SDS011;69425;55.040;82.918;2023-09-08T00:07:39;5.38;;;2.78;;
80119;SDS011;69425;55.040;82.918;2023-09-08T00:12:41;6.55;;;2.70;;
80119;SDS011;69425;55.040;82.918;2023-09-08T00:17:44;8.18;;;2.97;;
80119;SDS011;69425;55.040;82.918;2023-09-08T00:22:45;6.20;;;2.58;;
80119;SDS011;69425;55.040;82.918;2023-09-08T00:27:46;5.65;;;3.05;;
80119;SDS011;69425;55.040;82.918;2023-09-08T00:32:49;6.18;;;2.78;;
80119;SDS011;69425;55.040;82.918;2023-09-08T00:37:50;5.82;;;3.15;;
80119;SDS011;69425;55.040;82.918;2023-09-08T00:42:51;6.88;;;3.00;;
80119;SDS011;69425;55.040;82.918;2023-09-08T00:47:54;6.07;;;2.92;;
80119;SDS011;69425;55.040;82.918;2023-09-08T00:52:55;4.28;;;2.47;;
80119;SDS011;69425;55.040;82.918;2023-09-08T01:02:59;7.85;;;2.58;;
80119;SDS011;69425;55.040;82.918;2023-09-08T01:08:00;6.70;;;2.85;;
80119;SDS011;69425;55.040;82.918;2023-09-08T01:13:01;5.78;;;3.45;;
80119;SDS011;69425;55.040;82.918;2023-09-08T01:18:04;7.55;;;3.30;;
80119;SDS011;69425;55.040;82.918;2023-09-08T01:23:11;5.00;;;2.60;;
80119;SDS011;69425;55.040;82.918;2023-09-08T01:28:19;6.75;;;3.42;;
80119;SDS011;69425;55.040;82.918;2023-09-08T01:33:21;4.70;;;2.55;;
80119;SDS011;69425;55.040;82.918;2023-09-08T01:38:23;5.68;;;3.33;;
80119;SDS011;69425;55.040;82.918;2023-09-08T01:43:26;7.35;;;3.05;;
80119;SDS011;69425;55.040;82.918;2023-09-08T01:48:27;8.45;;;3.63;;
80119;SDS011;69425;55.040;82.918;2023-09-08T01:53:28;6.20;;;3.67;;
80119;SDS011;69425;55.040;82.918;2023-09-08T01:58:31;6.82;;;3.63;;
80119;SDS011;69425;55.040;82.918;2023-09-08T02:03:32;7.80;;;3.45;;
80119;SDS011;69425;55.040;82.918;2023-09-08T02:08:34;9.77;;;4.63;;
80119;SDS011;69425;55.040;82.918;2023-09-08T02:13:36;11.02;;;3.63;;
80119;SDS011;69425;55.040;82.918;2023-09-08T02:18:38;7.93;;;3.65;;
80119;SDS011;69425;55.040;82.918;2023-09-08T02:23:39;8.02;;;3.47;;
80119;SDS011;69425;55.040;82.918;2023-09-08T02:28:41;8.82;;;3.17;;
80119;SDS011;69425;55.040;82.918;2023-09-08T02:33:43;6.40;;;3.70;;
80119;SDS011;69425;55.040;82.918;2023-09-08T02:38:44;5.90;;;3.05;;
80119;SDS011;69425;55.040;82.918;2023-09-08T02:43:46;4.95;;;3.03;;
80119;SDS011;69425;55.040;82.918;2023-09-08T02:48:48;7.30;;;3.65;;
80119;SDS011;69425;55.040;82.918;2023-09-08T02:58:53;5.97;;;3.13;;
80119;SDS011;69425;55.040;82.918;2023-09-08T03:03:55;5.53;;;3.05;;
80119;SDS011;69425;55.040;82.918;2023-09-08T03:08:58;8.85;;;3.17;;
80119;SDS011;69425;55.040;82.918;2023-09-08T03:14:00;7.55;;;3.90;;
80119;SDS011;69425;55.040;82.918;2023-09-08T03:19:02;5.78;;;3.22;;
80119;SDS011;69425;55.040;82.918;2023-09-08T03:29:06;6.88;;;3.38;;
80119;SDS011;69425;55.040;82.918;2023-09-08T03:34:07;9.23;;;4.10;;
80119;SDS011;69425;55.040;82.918;2023-09-08T03:39:08;7.18;;;4.05;;
80119;SDS011;69425;55.040;82.918;2023-09-08T03:49:12;10.50;;;3.97;;
80119;SDS011;69425;55.040;82.918;2023-09-08T03:54:13;8.95;;;4.10;;
80119;SDS011;69425;55.040;82.918;2023-09-08T03:59:15;10.88;;;4.20;;
80119;SDS011;69425;55.040;82.918;2023-09-08T04:04:17;6.50;;;4.20;;
80119;SDS011;69425;55.040;82.918;2023-09-08T04:14:20;7.35;;;3.42;;
80119;SDS011;69425;55.040;82.918;2023-09-08T04:19:22;7.22;;;3.65;;
80119;SDS011;69425;55.040;82.918;2023-09-08T04:29:25;5.57;;;3.25;;
80119;SDS011;69425;55.040;82.918;2023-09-08T04:34:26;7.32;;;3.72;;
80119;SDS011;69425;55.040;82.918;2023-09-08T04:44:30;8.07;;;3.42;;
80119;SDS011;69425;55.040;82.918;2023-09-08T04:49:31;9.77;;;3.58;;
80119;SDS011;69425;55.040;82.918;2023-09-08T04:59:35;8.60;;;4.30;;
80119;SDS011;69425;55.040;82.918;2023-09-08T05:04:36;7.20;;;3.88;;
80119;SDS011;69425;55.040;82.918;2023-09-08T05:09:38;7.28;;;4.18;;
80119;SDS011;69425;55.040;82.918;2023-09-08T05:14:40;8.52;;;4.03;;
80119;SDS011;69425;55.040;82.918;2023-09-08T05:19:42;7.30;;;4.10;;
80119;SDS011;69425;55.040;82.918;2023-09-08T05:24:43;10.85;;;4.38;;
80119;SDS011;69425;55.040;82.918;2023-09-08T05:34:47;8.02;;;3.78;;
80119;SDS011;69425;55.040;82.918;2023-09-08T05:44:50;6.28;;;3.13;;
80119;SDS011;69425;55.040;82.918;2023-09-08T05:49:51;7.45;;;3.25;;
80119;SDS011;69425;55.040;82.918;2023-09-08T05:54:53;7.03;;;3.38;;
80119;SDS011;69425;55.040;82.918;2023-09-08T05:59:55;6.50;;;3.70;;
80119;SDS011;69425;55.040;82.918;2023-09-08T06:04:57;6.28;;;3.63;;
80119;SDS011;69425;55.040;82.918;2023-09-08T06:09:58;9.32;;;4.30;;
80119;SDS011;69425;55.040;82.918;2023-09-08T06:20:01;8.60;;;4.07;;
80119;SDS011;69425;55.040;82.918;2023-09-08T06:25:05;9.35;;;4.32;;
80119;SDS011;69425;55.040;82.918;2023-09-08T06:30:08;6.93;;;3.75;;
80119;SDS011;69425;55.040;82.918;2023-09-08T06:35:11;7.15;;;3.90;;
80119;SDS011;69425;55.040;82.918;2023-09-08T06:40:12;5.85;;;4.10;;
80119;SDS011;69425;55.040;82.918;2023-09-08T06:45:17;6.43;;;3.35;;
80119;SDS011;69425;55.040;82.918;2023-09-08T06:50:18;7.55;;;3.67;;
80119;SDS011;69425;55.040;82.918;2023-09-08T06:55:19;6.65;;;3.67;;
80119;SDS011;69425;55.040;82.918;2023-09-08T07:00:22;6.20;;;3.58;;
80119;SDS011;69425;55.040;82.918;2023-09-08T07:05:24;7.15;;;3.83;;
80119;SDS011;69425;55.040;82.918;2023-09-08T07:10:25;9.40;;;3.92;;
80119;SDS011;69425;55.040;82.918;2023-09-08T07:15:28;6.35;;;3.72;;
80119;SDS011;69425;55.040;82.918;2023-09-08T07:20:29;6.93;;;3.75;;
80119;SDS011;69425;55.040;82.918;2023-09-08T07:25:31;8.43;;;3.45;;
80119;SDS011;69425;55.040;82.918;2023-09-08T07:30:34;6.50;;;3.38;;
80119;SDS011;69425;55.040;82.918;2023-09-08T07:35:36;6.40;;;3.22;;
80119;SDS011;69425;55.040;82.918;2023-09-08T07:40:37;6.10;;;3.58;;
80119;SDS011;69425;55.040;82.918;2023-09-08T07:45:40;7.30;;;3.97;;
80119;SDS011;69425;55.040;82.918;2023-09-08T07:50:41;6.20;;;3.85;;
80119;SDS011;69425;55.040;82.918;2023-09-08T07:55:42;5.35;;;3.47;;
80119;SDS011;69425;55.040;82.918;2023-09-08T08:00:45;6.00;;;3.75;;
80119;SDS011;69425;55.040;82.918;2023-09-08T08:05:46;8.48;;;3.85;;
80119;SDS011;69425;55.040;82.918;2023-09-08T08:10:47;8.32;;;3.53;;
80119;SDS011;69425;55.040;82.918;2023-09-08T08:15:50;7.53;;;4.22;;
80119;SDS011;69425;55.040;82.918;2023-09-08T08:20:51;6.75;;;3.50;;
80119;SDS011;69425;55.040;82.918;2023-09-08T08:25:53;6.03;;;4.05;;
80119;SDS011;69425;55.040;82.918;2023-09-08T08:30:55;5.65;;;3.30;;
80119;SDS011;69425;55.040;82.918;2023-09-08T08:35:57;4.68;;;3.40;;
80119;SDS011;69425;55.040;82.918;2023-09-08T08:41:02;4.32;;;2.97;;
80119;SDS011;69425;55.040;82.918;2023-09-08T08:46:05;7.72;;;3.78;;
80119;SDS011;69425;55.040;82.918;2023-09-08T08:51:07;5.68;;;3.80;;
80119;SDS011;69425;55.040;82.918;2023-09-08T08:56:09;6.88;;;3.50;;
80119;SDS011;69425;55.040;82.918;2023-09-08T09:01:12;4.75;;;3.40;;
80119;SDS011;69425;55.040;82.918;2023-09-08T09:06:16;10.02;;;5.28;;
80119;SDS011;69425;55.040;82.918;2023-09-08T09:11:17;10.68;;;4.70;;
80119;SDS011;69425;55.040;82.918;2023-09-08T09:16:20;8.55;;;4.90;;
80119;SDS011;69425;55.040;82.918;2023-09-08T09:21:21;9.70;;;5.30;;
80119;SDS011;69425;55.040;82.918;2023-09-08T09:26:23;11.40;;;5.43;;
80119;SDS011;69425;55.040;82.918;2023-09-08T09:31:26;9.57;;;5.35;;
80119;SDS011;69425;55.040;82.918;2023-09-08T09:36:27;8.52;;;4.60;;
80119;SDS011;69425;55.040;82.918;2023-09-08T09:41:29;8.05;;;4.78;;
80119;SDS011;69425;55.040;82.918;2023-09-08T09:46:32;9.13;;;4.50;;
80119;SDS011;69425;55.040;82.918;2023-09-08T09:51:34;6.82;;;3.97;;
80119;SDS011;69425;55.040;82.918;2023-09-08T09:56:41;6.97;;;3.60;;
80119;SDS011;69425;55.040;82.918;2023-09-08T10:01:44;6.32;;;3.40;;
80119;SDS011;69425;55.040;82.918;2023-09-08T10:06:45;6.18;;;3.90;;
80119;SDS011;69425;55.040;82.918;2023-09-08T10:11:48;6.10;;;3.53;;
80119;SDS011;69425;55.040;82.918;2023-09-08T10:16:51;8.25;;;3.65;;
80119;SDS011;69425;55.040;82.918;2023-09-08T10:21:59;6.90;;;3.90;;
80119;SDS011;69425;55.040;82.918;2023-09-08T10:27:08;7.53;;;4.35;;
80119;SDS011;69425;55.040;82.918;2023-09-08T10:32:11;9.95;;;4.88;;
80119;SDS011;69425;55.040;82.918;2023-09-08T10:37:20;9.35;;;5.38;;
80119;SDS011;69425;55.040;82.918;2023-09-08T10:42:25;8.65;;;5.45;;
80119;SDS011;69425;55.040;82.918;2023-09-08T10:47:30;8.48;;;5.22;;
80119;SDS011;69425;55.040;82.918;2023-09-08T10:52:32;9.43;;;5.43;;
80119;SDS011;69425;55.040;82.918;2023-09-08T10:57:33;12.10;;;6.28;;
80119;SDS011;69425;55.040;82.918;2023-09-08T11:02:36;10.88;;;6.57;;
80119;SDS011;69425;55.040;82.918;2023-09-08T11:07:38;8.07;;;4.95;;
80119;SDS011;69425;55.040;82.918;2023-09-08T11:12:40;10.65;;;5.30;;
80119;SDS011;69425;55.040;82.918;2023-09-08T11:17:43;9.70;;;5.78;;
80119;SDS011;69425;55.040;82.918;2023-09-08T11:22:44;11.77;;;5.32;;
80119;SDS011;69425;55.040;82.918;2023-09-08T11:27:46;8.20;;;4.65;;
80119;SDS011;69425;55.040;82.918;2023-09-08T11:32:50;9.35;;;4.75;;
80119;SDS011;69425;55.040;82.918;2023-09-08T11:37:51;10.07;;;5.10;;
80119;SDS011;69425;55.040;82.918;2023-09-08T11:42:53;9.80;;;5.13;;
80119;SDS011;69425;55.040;82.918;2023-09-08T11:47:58;8.82;;;5.22;;
80119;SDS011;69425;55.040;82.918;2023-09-08T11:53:00;9.93;;;5.85;;
80119;SDS011;69425;55.040;82.918;2023-09-08T11:58:01;11.07;;;5.68;;
80119;SDS011;69425;55.040;82.918;2023-09-08T12:03:10;11.75;;;4.95;;
80119;SDS011;69425;55.040;82.918;2023-09-08T12:08:12;14.02;;;5.55;;
80119;SDS011;69425;55.040;82.918;2023-09-08T12:13:19;9.55;;;5.30;;
80119;SDS011;69425;55.040;82.918;2023-09-08T12:18:36;10.50;;;4.75;;
80119;SDS011;69425;55.040;82.918;2023-09-08T12:23:46;9.75;;;4.80;;
80119;SDS011;69425;55.040;82.918;2023-09-08T12:28:48;5.15;;;3.67;;
80119;SDS011;69425;55.040;82.918;2023-09-08T12:33:50;6.72;;;3.38;;
80119;SDS011;69425;55.040;82.918;2023-09-08T12:38:53;7.10;;;3.42;;
80119;SDS011;69425;55.040;82.918;2023-09-08T12:43:54;7.07;;;3.97;;
80119;SDS011;69425;55.040;82.918;2023-09-08T12:48:57;7.15;;;3.75;;
80119;SDS011;69425;55.040;82.918;2023-09-08T12:53:58;7.00;;;3.95;;
80119;SDS011;69425;55.040;82.918;2023-09-08T12:58:59;9.38;;;4.28;;
80119;SDS011;69425;55.040;82.918;2023-09-08T13:09:02;9.65;;;4.53;;
80119;SDS011;69425;55.040;82.918;2023-09-08T13:19:06;9.65;;;4.68;;
80119;SDS011;69425;55.040;82.918;2023-09-08T13:24:07;10.50;;;4.70;;
80119;SDS011;69425;55.040;82.918;2023-09-08T13:29:09;8.05;;;4.20;;
80119;SDS011;69425;55.040;82.918;2023-09-08T13:34:12;10.82;;;5.75;;
80119;SDS011;69425;55.040;82.918;2023-09-08T13:39:13;10.23;;;5.10;;
80119;SDS011;69425;55.040;82.918;2023-09-08T13:44:14;7.82;;;4.95;;
80119;SDS011;69425;55.040;82.918;2023-09-08T13:49:17;10.23;;;4.97;;
80119;SDS011;69425;55.040;82.918;2023-09-08T13:54:18;9.18;;;5.03;;
80119;SDS011;69425;55.040;82.918;2023-09-08T14:04:22;11.65;;;4.80;;
80119;SDS011;69425;55.040;82.918;2023-09-08T14:09:23;7.95;;;4.78;;
80119;SDS011;69425;55.040;82.918;2023-09-08T14:19:27;9.50;;;3.97;;
80119;SDS011;69425;55.040;82.918;2023-09-08T14:24:28;10.73;;;5.00;;
80119;SDS011;69425;55.040;82.918;2023-09-08T14:34:32;8.63;;;4.05;;
80119;SDS011;69425;55.040;82.918;2023-09-08T14:39:33;8.77;;;4.72;;
80119;SDS011;69425;55.040;82.918;2023-09-08T14:49:36;9.40;;;4.15;;
80119;SDS011;69425;55.040;82.918;2023-09-08T14:54:38;11.45;;;5.10;;
80119;SDS011;69425;55.040;82.918;2023-09-08T15:04:41;13.45;;;5.88;;
80119;SDS011;69425;55.040;82.918;2023-09-08T15:09:44;14.73;;;7.03;;
80119;SDS011;69425;55.040;82.918;2023-09-08T15:19:47;11.18;;;6.13;;
80119;SDS011;69425;55.040;82.918;2023-09-08T15:24:49;13.63;;;6.95;;
80119;SDS011;69425;55.040;82.918;2023-09-08T15:29:50;13.40;;;7.50;;
80119;SDS011;69425;55.040;82.918;2023-09-08T15:34:53;17.60;;;8.70;;
80119;SDS011;69425;55.040;82.918;2023-09-08T15:39:54;23.95;;;10.20;;
80119;SDS011;69425;55.040;82.918;2023-09-08T15:49:59;18.20;;;10.32;;
80119;SDS011;69425;55.040;82.918;2023-09-08T15:55:00;19.50;;;9.45;;
80119;SDS011;69425;55.040;82.918;2023-09-08T16:05:05;18.83;;;8.73;;
80119;SDS011;69425;55.040;82.918;2023-09-08T16:10:07;19.30;;;8.95;;
80119;SDS011;69425;55.040;82.918;2023-09-08T16:15:09;22.55;;;9.27;;
80119;SDS011;69425;55.040;82.918;2023-09-08T16:20:12;22.20;;;10.95;;
80119;SDS011;69425;55.040;82.918;2023-09-08T16:25:13;24.08;;;10.68;;
80119;SDS011;69425;55.040;82.918;2023-09-08T16:30:14;22.75;;;10.20;;
80119;SDS011;69425;55.040;82.918;2023-09-08T16:35:17;20.80;;;9.88;;
80119;SDS011;69425;55.040;82.918;2023-09-08T16:40:18;17.88;;;10.27;;
80119;SDS011;69425;55.040;82.918;2023-09-08T16:50:22;26.40;;;10.10;;
80119;SDS011;69425;55.040;82.918;2023-09-08T16:55:23;23.15;;;11.45;;
80119;SDS011;69425;55.040;82.918;2023-09-08T17:00:24;29.30;;;11.02;;
80119;SDS011;69425;55.040;82.918;2023-09-08T17:10:28;25.98;;;12.60;;
80119;SDS011;69425;55.040;82.918;2023-09-08T17:20:31;24.35;;;11.68;;
80119;SDS011;69425;55.040;82.918;2023-09-08T17:25:33;19.08;;;10.88;;
80119;SDS011;69425;55.040;82.918;2023-09-08T17:35:36;22.90;;;12.00;;
80119;SDS011;69425;55.040;82.918;2023-09-08T17:40:38;22.02;;;12.50;;
80119;SDS011;69425;55.040;82.918;2023-09-08T17:45:39;23.83;;;13.75;;
80119;SDS011;69425;55.040;82.918;2023-09-08T17:55:42;21.23;;;10.93;;
80119;SDS011;69425;55.040;82.918;2023-09-08T18:00:44;27.80;;;12.70;;
80119;SDS011;69425;55.040;82.918;2023-09-08T18:10:47;21.30;;;12.25;;
80119;SDS011;69425;55.040;82.918;2023-09-08T18:15:48;21.23;;;11.70;;
80119;SDS011;69425;55.040;82.918;2023-09-08T18:20:58;24.90;;;11.50;;
80119;SDS011;69425;55.040;82.918;2023-09-08T18:25:59;21.17;;;11.38;;
80119;SDS011;69425;55.040;82.918;2023-09-08T18:31:01;22.98;;;11.85;;
80119;SDS011;69425;55.040;82.918;2023-09-08T18:36:04;18.73;;;9.80;;
80119;SDS011;69425;55.040;82.918;2023-09-08T18:41:05;21.45;;;10.65;;
80119;SDS011;69425;55.040;82.918;2023-09-08T18:46:07;23.75;;;10.35;;
80119;SDS011;69425;55.040;82.918;2023-09-08T18:51:09;23.55;;;11.23;;
80119;SDS011;69425;55.040;82.918;2023-09-08T18:56:10;27.30;;;12.38;;
80119;SDS011;69425;55.040;82.918;2023-09-08T19:01:12;31.75;;;14.27;;
80119;SDS011;69425;55.040;82.918;2023-09-08T19:06:14;26.20;;;12.93;;
80119;SDS011;69425;55.040;82.918;2023-09-08T19:11:16;23.65;;;12.32;;
80119;SDS011;69425;55.040;82.918;2023-09-08T19:16:17;23.27;;;12.80;;
80119;SDS011;69425;55.040;82.918;2023-09-08T19:21:20;26.48;;;11.93;;
80119;SDS011;69425;55.040;82.918;2023-09-08T19:26:21;21.02;;;11.70;;
80119;SDS011;69425;55.040;82.918;2023-09-08T19:31:22;20.23;;;10.65;;
80119;SDS011;69425;55.040;82.918;2023-09-08T19:36:25;19.00;;;11.13;;
80119;SDS011;69425;55.040;82.918;2023-09-08T19:41:26;16.70;;;9.77;;
80119;SDS011;69425;55.040;82.918;2023-09-08T19:46:27;15.25;;;9.27;;
80119;SDS011;69425;55.040;82.918;2023-09-08T19:51:30;18.85;;;10.07;;
80119;SDS011;69425;55.040;82.918;2023-09-08T19:56:31;19.67;;;9.52;;
80119;SDS011;69425;55.040;82.918;2023-09-08T20:01:32;14.27;;;7.70;;
80119;SDS011;69425;55.040;82.918;2023-09-08T20:06:35;16.10;;;9.80;;
80119;SDS011;69425;55.040;82.918;2023-09-08T20:11:36;15.75;;;8.98;;
80119;SDS011;69425;55.040;82.918;2023-09-08T20:16:37;18.73;;;8.70;;
80119;SDS011;69425;55.040;82.918;2023-09-08T20:21:40;18.60;;;8.52;;
80119;SDS011;69425;55.040;82.918;2023-09-08T20:26:41;20.00;;;8.63;;
80119;SDS011;69425;55.040;82.918;2023-09-08T20:31:42;16.67;;;8.38;;
80119;SDS011;69425;55.040;82.918;2023-09-08T20:41:46;19.15;;;8.85;;
80119;SDS011;69425;55.040;82.918;2023-09-08T20:46:47;15.48;;;8.50;;
80119;SDS011;69425;55.040;82.918;2023-09-08T20:56:50;12.05;;;6.90;;
80119;SDS011;69425;55.040;82.918;2023-09-08T21:01:52;17.55;;;7.93;;
80119;SDS011;69425;55.040;82.918;2023-09-08T21:06:54;14.07;;;6.95;;
80119;SDS011;69425;55.040;82.918;2023-09-08T21:11:55;17.73;;;7.50;;
80119;SDS011;69425;55.040;82.918;2023-09-08T21:16:57;14.73;;;7.15;;
80119;SDS011;69425;55.040;82.918;2023-09-08T21:21:59;14.80;;;7.80;;
80119;SDS011;69425;55.040;82.918;2023-09-08T21:27:01;14.38;;;7.07;;
80119;SDS011;69425;55.040;82.918;2023-09-08T21:32:02;12.90;;;7.00;;
80119;SDS011;69425;55.040;82.918;2023-09-08T21:37:05;15.23;;;7.05;;
80119;SDS011;69425;55.040;82.918;2023-09-08T21:42:06;15.20;;;7.13;;
80119;SDS011;69425;55.040;82.918;2023-09-08T21:47:07;14.95;;;6.82;;
80119;SDS011;69425;55.040;82.918;2023-09-08T21:52:10;14.50;;;7.15;;
80119;SDS011;69425;55.040;82.918;2023-09-08T21:57:11;10.35;;;6.22;;
80119;SDS011;69425;55.040;82.918;2023-09-08T22:02:12;14.30;;;5.90;;
80119;SDS011;69425;55.040;82.918;2023-09-08T22:07:15;15.23;;;5.95;;
80119;SDS011;69425;55.040;82.918;2023-09-08T22:12:16;18.15;;;7.57;;
80119;SDS011;69425;55.040;82.918;2023-09-08T22:17:17;10.50;;;5.93;;
80119;SDS011;69425;55.040;82.918;2023-09-08T22:22:20;11.88;;;6.40;;
80119;SDS011;69425;55.040;82.918;2023-09-08T22:27:21;12.40;;;6.10;;
80119;SDS011;69425;55.040;82.918;2023-09-08T22:32:22;16.02;;;6.32;;
80119;SDS011;69425;55.040;82.918;2023-09-08T22:37:25;15.88;;;6.82;;
80119;SDS011;69425;55.040;82.918;2023-09-08T22:42:26;13.32;;;7.13;;
80119;SDS011;69425;55.040;82.918;2023-09-08T22:47:28;17.52;;;8.40;;
80119;SDS011;69425;55.040;82.918;2023-09-08T22:52:30;17.88;;;9.10;;
80119;SDS011;69425;55.040;82.918;2023-09-08T22:57:32;14.55;;;8.85;;
80119;SDS011;69425;55.040;82.918;2023-09-08T23:02:34;20.45;;;10.50;;
80119;SDS011;69425;55.040;82.918;2023-09-08T23:07:36;18.65;;;8.90;;
80119;SDS011;69425;55.040;82.918;2023-09-08T23:12:38;15.10;;;8.55;;
80119;SDS011;69425;55.040;82.918;2023-09-08T23:17:39;19.25;;;9.40;;
80119;SDS011;69425;55.040;82.918;2023-09-08T23:27:43;15.98;;;7.93;;
80119;SDS011;69425;55.040;82.918;2023-09-08T23:32:44;22.27;;;9.50;;
80119;SDS011;69425;55.040;82.918;2023-09-08T23:37:47;14.52;;;9.00;;
80119;SDS011;69425;55.040;82.918;2023-09-08T23:42:48;17.05;;;9.32;;
80119;SDS011;69425;55.040;82.918;2023-09-08T23:47:49;20.48;;;10.60;;
80119;SDS011;69425;55.040;82.918;2023-09-08T23:52:51;18.17;;;9.43;;
80119;SDS011;69425;55.040;82.918;2023-09-08T23:57:53;17.50;;;9.88;;
